sensor_id;sensor_type;location;lat;lon;timestamp;P1;durP1;ratioP1;P2;durP2;ratioP2
53391;SDS011;41667;51.922;8.850;2024-01-30T00:01:38;18.25;;;12.45;;
53391;SDS011;41667;51.922;8.850;2024-01-30T00:04:04;20.55;;;12.07;;
53391;SDS011;41667;51.922;8.850;2024-01-30T00:06:29;18.35;;;12.00;;
53391;SDS011;41667;51.922;8.850;2024-01-30T00:08:54;20.17;;;12.32;;
53391;SDS011;41667;51.922;8.850;2024-01-30T00:11:19;19.70;;;10.93;;
53391;SDS011;41667;51.922;8.850;2024-01-30T00:13:45;23.60;;;11.18;;
53391;SDS011;41667;51.922;8.850;2024-01-30T00:16:20;17.73;;;11.18;;
53391;SDS011;41667;51.922;8.850;2024-01-30T00:18:46;14.48;;;10.63;;
53391;SDS011;41667;51.922;8.850;2024-01-30T00:21:12;19.42;;;12.50;;
53391;SDS011;41667;51.922;8.850;2024-01-30T00:23:37;42.42;;;11.55;;
53391;SDS011;41667;51.922;8.850;2024-01-30T00:26:03;15.20;;;10.18;;
53391;SDS011;41667;51.922;8.850;2024-01-30T00:28:28;19.27;;;10.82;;
53391;SDS011;41667;51.922;8.850;2024-01-30T00:30:53;19.60;;;11.32;;
53391;SDS011;41667;51.922;8.850;2024-01-30T00:33:19;18.42;;;12.02;;
53391;SDS011;41667;51.922;8.850;2024-01-30T00:35:44;19.15;;;11.90;;
53391;SDS011;41667;51.922;8.850;2024-01-30T00:38:09;20.27;;;12.55;;
53391;SDS011;41667;51.922;8.850;2024-01-30T00:40:35;18.98;;;11.68;;
53391;SDS011;41667;51.922;8.850;2024-01-30T00:43:00;20.85;;;11.38;;
53391;SDS011;41667;51.922;8.850;2024-01-30T00:45:25;20.63;;;11.00;;
53391;SDS011;41667;51.922;8.850;2024-01-30T00:47:50;16.38;;;10.27;;
53391;SDS011;41667;51.922;8.850;2024-01-30T00:50:16;15.60;;;10.60;;
53391;SDS011;41667;51.922;8.850;2024-01-30T00:52:41;20.80;;;10.57;;
53391;SDS011;41667;51.922;8.850;2024-01-30T00:55:09;19.33;;;11.20;;
53391;SDS011;41667;51.922;8.850;2024-01-30T00:57:35;15.63;;;10.80;;
53391;SDS011;41667;51.922;8.850;2024-01-30T01:00:00;14.85;;;10.43;;
53391;SDS011;41667;51.922;8.850;2024-01-30T01:02:25;18.92;;;10.43;;
53391;SDS011;41667;51.922;8.850;2024-01-30T01:04:51;17.33;;;9.77;;
53391;SDS011;41667;51.922;8.850;2024-01-30T01:07:16;16.90;;;10.50;;
53391;SDS011;41667;51.922;8.850;2024-01-30T01:09:41;18.23;;;11.02;;
53391;SDS011;41667;51.922;8.850;2024-01-30T01:12:06;20.45;;;10.98;;
53391;SDS011;41667;51.922;8.850;2024-01-30T01:14:32;21.80;;;11.95;;
53391;SDS011;41667;51.922;8.850;2024-01-30T01:16:57;17.00;;;11.73;;
53391;SDS011;41667;51.922;8.850;2024-01-30T01:19:22;17.25;;;11.30;;
53391;SDS011;41667;51.922;8.850;2024-01-30T01:21:48;15.27;;;10.38;;
53391;SDS011;41667;51.922;8.850;2024-01-30T01:24:13;17.77;;;11.18;;
53391;SDS011;41667;51.922;8.850;2024-01-30T01:26:38;13.98;;;10.90;;
53391;SDS011;41667;51.922;8.850;2024-01-30T01:29:04;15.52;;;10.57;;
53391;SDS011;41667;51.922;8.850;2024-01-30T01:31:35;19.15;;;11.27;;
53391;SDS011;41667;51.922;8.850;2024-01-30T01:34:04;19.75;;;11.52;;
53391;SDS011;41667;51.922;8.850;2024-01-30T01:36:30;17.05;;;11.05;;
53391;SDS011;41667;51.922;8.850;2024-01-30T01:38:55;15.45;;;10.10;;
53391;SDS011;41667;51.922;8.850;2024-01-30T01:41:20;20.35;;;11.70;;
53391;SDS011;41667;51.922;8.850;2024-01-30T01:43:45;18.90;;;12.02;;
53391;SDS011;41667;51.922;8.850;2024-01-30T01:46:11;20.67;;;11.27;;
53391;SDS011;41667;51.922;8.850;2024-01-30T01:48:36;19.13;;;11.15;;
53391;SDS011;41667;51.922;8.850;2024-01-30T01:51:02;20.45;;;12.20;;
53391;SDS011;41667;51.922;8.850;2024-01-30T01:53:27;18.70;;;11.88;;
53391;SDS011;41667;51.922;8.850;2024-01-30T01:55:53;17.98;;;13.15;;
53391;SDS011;41667;51.922;8.850;2024-01-30T01:58:19;21.38;;;12.77;;
53391;SDS011;41667;51.922;8.850;2024-01-30T02:00:45;17.65;;;11.05;;
53391;SDS011;41667;51.922;8.850;2024-01-30T02:03:10;19.58;;;11.65;;
53391;SDS011;41667;51.922;8.850;2024-01-30T02:05:39;17.13;;;12.57;;
53391;SDS011;41667;51.922;8.850;2024-01-30T02:08:05;20.50;;;12.48;;
53391;SDS011;41667;51.922;8.850;2024-01-30T02:10:30;27.20;;;13.00;;
53391;SDS011;41667;51.922;8.850;2024-01-30T02:12:55;20.92;;;12.80;;
53391;SDS011;41667;51.922;8.850;2024-01-30T02:15:21;19.75;;;12.55;;
53391;SDS011;41667;51.922;8.850;2024-01-30T02:17:46;20.42;;;12.00;;
53391;SDS011;41667;51.922;8.850;2024-01-30T02:20:11;16.35;;;12.43;;
53391;SDS011;41667;51.922;8.850;2024-01-30T02:22:37;20.92;;;11.82;;
53391;SDS011;41667;51.922;8.850;2024-01-30T02:25:03;15.85;;;11.52;;
53391;SDS011;41667;51.922;8.850;2024-01-30T02:27:29;25.33;;;13.07;;
53391;SDS011;41667;51.922;8.850;2024-01-30T02:29:54;15.85;;;12.25;;
53391;SDS011;41667;51.922;8.850;2024-01-30T02:32:20;16.38;;;11.10;;
53391;SDS011;41667;51.922;8.850;2024-01-30T02:34:45;19.38;;;12.45;;
53391;SDS011;41667;51.922;8.850;2024-01-30T02:37:11;17.33;;;11.00;;
53391;SDS011;41667;51.922;8.850;2024-01-30T02:39:36;17.67;;;11.57;;
53391;SDS011;41667;51.922;8.850;2024-01-30T02:42:01;16.52;;;10.70;;
53391;SDS011;41667;51.922;8.850;2024-01-30T02:44:27;20.95;;;10.85;;
53391;SDS011;41667;51.922;8.850;2024-01-30T02:46:52;15.65;;;11.27;;
53391;SDS011;41667;51.922;8.850;2024-01-30T02:49:19;20.17;;;11.75;;
53391;SDS011;41667;51.922;8.850;2024-01-30T02:51:44;18.38;;;11.57;;
53391;SDS011;41667;51.922;8.850;2024-01-30T02:54:09;19.30;;;12.88;;
53391;SDS011;41667;51.922;8.850;2024-01-30T02:56:35;18.52;;;11.63;;
53391;SDS011;41667;51.922;8.850;2024-01-30T02:59:00;20.58;;;12.23;;
53391;SDS011;41667;51.922;8.850;2024-01-30T03:01:25;20.63;;;11.50;;
53391;SDS011;41667;51.922;8.850;2024-01-30T03:03:50;18.13;;;11.77;;
53391;SDS011;41667;51.922;8.850;2024-01-30T03:06:16;19.20;;;12.15;;
53391;SDS011;41667;51.922;8.850;2024-01-30T03:08:42;15.68;;;10.55;;
53391;SDS011;41667;51.922;8.850;2024-01-30T03:11:07;21.02;;;11.43;;
53391;SDS011;41667;51.922;8.850;2024-01-30T03:13:33;17.65;;;11.20;;
53391;SDS011;41667;51.922;8.850;2024-01-30T03:15:58;23.33;;;12.13;;
53391;SDS011;41667;51.922;8.850;2024-01-30T03:18:23;20.70;;;12.52;;
53391;SDS011;41667;51.922;8.850;2024-01-30T03:20:49;18.92;;;11.43;;
53391;SDS011;41667;51.922;8.850;2024-01-30T03:23:14;23.08;;;13.75;;
53391;SDS011;41667;51.922;8.850;2024-01-30T03:25:39;18.08;;;12.75;;
53391;SDS011;41667;51.922;8.850;2024-01-30T03:28:04;20.92;;;13.02;;
53391;SDS011;41667;51.922;8.850;2024-01-30T03:30:30;22.95;;;12.25;;
53391;SDS011;41667;51.922;8.850;2024-01-30T03:32:55;21.95;;;12.85;;
53391;SDS011;41667;51.922;8.850;2024-01-30T03:35:20;21.20;;;13.10;;
53391;SDS011;41667;51.922;8.850;2024-01-30T03:37:46;17.63;;;12.40;;
53391;SDS011;41667;51.922;8.850;2024-01-30T03:40:11;17.30;;;12.85;;
53391;SDS011;41667;51.922;8.850;2024-01-30T03:42:36;17.30;;;12.02;;
53391;SDS011;41667;51.922;8.850;2024-01-30T03:45:02;18.85;;;11.70;;
53391;SDS011;41667;51.922;8.850;2024-01-30T03:47:27;19.80;;;13.13;;
53391;SDS011;41667;51.922;8.850;2024-01-30T03:49:53;23.58;;;12.85;;
53391;SDS011;41667;51.922;8.850;2024-01-30T03:52:18;18.98;;;12.38;;
53391;SDS011;41667;51.922;8.850;2024-01-30T03:54:43;21.55;;;11.98;;
53391;SDS011;41667;51.922;8.850;2024-01-30T03:57:09;21.77;;;13.55;;
53391;SDS011;41667;51.922;8.850;2024-01-30T03:59:34;19.55;;;13.27;;
53391;SDS011;41667;51.922;8.850;2024-01-30T04:01:59;19.83;;;12.07;;
53391;SDS011;41667;51.922;8.850;2024-01-30T04:04:25;22.45;;;12.05;;
53391;SDS011;41667;51.922;8.850;2024-01-30T04:06:50;24.83;;;12.93;;
53391;SDS011;41667;51.922;8.850;2024-01-30T04:09:15;24.27;;;12.38;;
53391;SDS011;41667;51.922;8.850;2024-01-30T04:11:41;25.90;;;13.80;;
53391;SDS011;41667;51.922;8.850;2024-01-30T04:14:10;20.52;;;12.63;;
53391;SDS011;41667;51.922;8.850;2024-01-30T04:16:35;22.30;;;13.55;;
53391;SDS011;41667;51.922;8.850;2024-01-30T04:19:01;23.10;;;14.23;;
53391;SDS011;41667;51.922;8.850;2024-01-30T04:21:26;22.73;;;13.98;;
53391;SDS011;41667;51.922;8.850;2024-01-30T04:23:51;22.98;;;12.73;;
53391;SDS011;41667;51.922;8.850;2024-01-30T04:26:17;19.88;;;13.88;;
53391;SDS011;41667;51.922;8.850;2024-01-30T04:28:43;21.63;;;12.93;;
53391;SDS011;41667;51.922;8.850;2024-01-30T04:31:09;22.13;;;13.48;;
53391;SDS011;41667;51.922;8.850;2024-01-30T04:33:34;21.48;;;14.48;;
53391;SDS011;41667;51.922;8.850;2024-01-30T04:35:59;22.75;;;14.10;;
53391;SDS011;41667;51.922;8.850;2024-01-30T04:38:25;22.58;;;13.98;;
53391;SDS011;41667;51.922;8.850;2024-01-30T04:40:50;26.98;;;15.57;;
53391;SDS011;41667;51.922;8.850;2024-01-30T04:43:15;23.98;;;15.40;;
53391;SDS011;41667;51.922;8.850;2024-01-30T04:45:41;26.48;;;15.77;;
53391;SDS011;41667;51.922;8.850;2024-01-30T04:48:07;22.75;;;14.52;;
53391;SDS011;41667;51.922;8.850;2024-01-30T04:50:32;30.27;;;16.38;;
53391;SDS011;41667;51.922;8.850;2024-01-30T04:52:57;24.35;;;15.45;;
53391;SDS011;41667;51.922;8.850;2024-01-30T04:55:23;23.50;;;14.07;;
53391;SDS011;41667;51.922;8.850;2024-01-30T04:57:48;23.10;;;14.90;;
53391;SDS011;41667;51.922;8.850;2024-01-30T05:00:14;24.10;;;13.80;;
53391;SDS011;41667;51.922;8.850;2024-01-30T05:02:40;26.27;;;15.20;;
53391;SDS011;41667;51.922;8.850;2024-01-30T05:05:05;29.20;;;15.85;;
53391;SDS011;41667;51.922;8.850;2024-01-30T05:07:30;24.85;;;15.98;;
53391;SDS011;41667;51.922;8.850;2024-01-30T05:09:56;25.05;;;17.10;;
53391;SDS011;41667;51.922;8.850;2024-01-30T05:12:21;25.88;;;16.45;;
53391;SDS011;41667;51.922;8.850;2024-01-30T05:14:46;23.70;;;16.35;;
53391;SDS011;41667;51.922;8.850;2024-01-30T05:17:12;26.98;;;15.73;;
53391;SDS011;41667;51.922;8.850;2024-01-30T05:19:37;23.95;;;15.90;;
53391;SDS011;41667;51.922;8.850;2024-01-30T05:22:03;30.42;;;16.67;;
53391;SDS011;41667;51.922;8.850;2024-01-30T05:24:28;23.73;;;15.13;;
53391;SDS011;41667;51.922;8.850;2024-01-30T05:26:53;29.17;;;16.63;;
53391;SDS011;41667;51.922;8.850;2024-01-30T05:29:19;30.65;;;15.65;;
53391;SDS011;41667;51.922;8.850;2024-01-30T05:31:44;23.88;;;16.00;;
53391;SDS011;41667;51.922;8.850;2024-01-30T05:34:09;25.23;;;15.95;;
53391;SDS011;41667;51.922;8.850;2024-01-30T05:36:35;35.70;;;17.10;;
53391;SDS011;41667;51.922;8.850;2024-01-30T05:39:00;24.52;;;16.13;;
53391;SDS011;41667;51.922;8.850;2024-01-30T05:41:26;26.30;;;15.18;;
53391;SDS011;41667;51.922;8.850;2024-01-30T05:43:51;22.95;;;15.25;;
53391;SDS011;41667;51.922;8.850;2024-01-30T05:46:16;28.55;;;16.00;;
53391;SDS011;41667;51.922;8.850;2024-01-30T05:48:41;26.48;;;15.45;;
53391;SDS011;41667;51.922;8.850;2024-01-30T05:51:07;26.30;;;16.25;;
53391;SDS011;41667;51.922;8.850;2024-01-30T05:53:32;28.13;;;18.05;;
53391;SDS011;41667;51.922;8.850;2024-01-30T05:55:58;25.15;;;15.38;;
53391;SDS011;41667;51.922;8.850;2024-01-30T05:58:23;23.90;;;15.10;;
53391;SDS011;41667;51.922;8.850;2024-01-30T06:00:48;28.13;;;14.88;;
53391;SDS011;41667;51.922;8.850;2024-01-30T06:03:14;23.83;;;14.80;;
53391;SDS011;41667;51.922;8.850;2024-01-30T06:05:39;24.05;;;15.52;;
53391;SDS011;41667;51.922;8.850;2024-01-30T06:08:04;21.15;;;14.30;;
53391;SDS011;41667;51.922;8.850;2024-01-30T06:10:30;23.88;;;14.30;;
53391;SDS011;41667;51.922;8.850;2024-01-30T06:12:55;25.65;;;14.35;;
53391;SDS011;41667;51.922;8.850;2024-01-30T06:15:20;24.02;;;15.45;;
53391;SDS011;41667;51.922;8.850;2024-01-30T06:17:46;22.58;;;14.15;;
53391;SDS011;41667;51.922;8.850;2024-01-30T06:20:11;27.30;;;14.77;;
53391;SDS011;41667;51.922;8.850;2024-01-30T06:22:36;21.83;;;14.88;;
53391;SDS011;41667;51.922;8.850;2024-01-30T06:25:02;24.08;;;14.45;;
53391;SDS011;41667;51.922;8.850;2024-01-30T06:27:27;27.00;;;16.05;;
53391;SDS011;41667;51.922;8.850;2024-01-30T06:29:53;37.25;;;17.73;;
53391;SDS011;41667;51.922;8.850;2024-01-30T06:32:18;45.85;;;20.45;;
53391;SDS011;41667;51.922;8.850;2024-01-30T06:34:43;23.42;;;14.45;;
53391;SDS011;41667;51.922;8.850;2024-01-30T06:37:09;19.75;;;13.02;;
53391;SDS011;41667;51.922;8.850;2024-01-30T06:39:34;19.75;;;12.80;;
53391;SDS011;41667;51.922;8.850;2024-01-30T06:42:00;24.63;;;12.38;;
53391;SDS011;41667;51.922;8.850;2024-01-30T06:44:25;26.00;;;12.52;;
53391;SDS011;41667;51.922;8.850;2024-01-30T06:46:50;18.45;;;12.88;;
53391;SDS011;41667;51.922;8.850;2024-01-30T06:49:15;24.95;;;13.13;;
53391;SDS011;41667;51.922;8.850;2024-01-30T06:51:41;22.33;;;13.70;;
53391;SDS011;41667;51.922;8.850;2024-01-30T06:54:06;27.67;;;15.98;;
53391;SDS011;41667;51.922;8.850;2024-01-30T06:56:31;23.17;;;14.13;;
53391;SDS011;41667;51.922;8.850;2024-01-30T06:58:57;20.60;;;12.70;;
53391;SDS011;41667;51.922;8.850;2024-01-30T07:01:30;24.90;;;14.10;;
53391;SDS011;41667;51.922;8.850;2024-01-30T07:03:56;26.33;;;12.75;;
53391;SDS011;41667;51.922;8.850;2024-01-30T07:06:22;22.80;;;14.93;;
53391;SDS011;41667;51.922;8.850;2024-01-30T07:08:49;24.42;;;12.93;;
53391;SDS011;41667;51.922;8.850;2024-01-30T07:11:20;23.42;;;14.32;;
53391;SDS011;41667;51.922;8.850;2024-01-30T07:13:52;28.25;;;14.93;;
53391;SDS011;41667;51.922;8.850;2024-01-30T07:16:17;21.02;;;14.48;;
53391;SDS011;41667;51.922;8.850;2024-01-30T07:18:43;28.27;;;16.17;;
53391;SDS011;41667;51.922;8.850;2024-01-30T07:21:08;22.75;;;15.30;;
53391;SDS011;41667;51.922;8.850;2024-01-30T07:23:34;28.20;;;16.98;;
53391;SDS011;41667;51.922;8.850;2024-01-30T07:25:59;25.80;;;16.10;;
53391;SDS011;41667;51.922;8.850;2024-01-30T07:28:26;26.35;;;15.38;;
53391;SDS011;41667;51.922;8.850;2024-01-30T07:30:51;30.17;;;15.60;;
53391;SDS011;41667;51.922;8.850;2024-01-30T07:33:16;20.48;;;14.35;;
53391;SDS011;41667;51.922;8.850;2024-01-30T07:35:42;22.15;;;13.65;;
53391;SDS011;41667;51.922;8.850;2024-01-30T07:38:07;28.70;;;16.90;;
53391;SDS011;41667;51.922;8.850;2024-01-30T07:40:32;23.17;;;15.27;;
53391;SDS011;41667;51.922;8.850;2024-01-30T07:42:58;29.70;;;15.70;;
53391;SDS011;41667;51.922;8.850;2024-01-30T07:45:23;31.90;;;16.10;;
53391;SDS011;41667;51.922;8.850;2024-01-30T07:47:50;19.48;;;11.25;;
53391;SDS011;41667;51.922;8.850;2024-01-30T07:50:16;24.17;;;13.82;;
53391;SDS011;41667;51.922;8.850;2024-01-30T07:52:41;22.30;;;12.20;;
53391;SDS011;41667;51.922;8.850;2024-01-30T07:55:07;23.40;;;12.55;;
53391;SDS011;41667;51.922;8.850;2024-01-30T07:57:33;16.52;;;12.00;;
53391;SDS011;41667;51.922;8.850;2024-01-30T07:59:59;23.48;;;13.18;;
53391;SDS011;41667;51.922;8.850;2024-01-30T08:02:24;24.48;;;14.30;;
53391;SDS011;41667;51.922;8.850;2024-01-30T08:04:49;23.20;;;14.50;;
53391;SDS011;41667;51.922;8.850;2024-01-30T08:07:15;23.45;;;13.90;;
53391;SDS011;41667;51.922;8.850;2024-01-30T08:09:40;25.52;;;15.63;;
53391;SDS011;41667;51.922;8.850;2024-01-30T08:12:05;25.95;;;14.23;;
53391;SDS011;41667;51.922;8.850;2024-01-30T08:14:31;26.08;;;15.35;;
53391;SDS011;41667;51.922;8.850;2024-01-30T08:16:56;21.95;;;13.88;;
53391;SDS011;41667;51.922;8.850;2024-01-30T08:19:22;24.58;;;14.95;;
53391;SDS011;41667;51.922;8.850;2024-01-30T08:21:47;19.50;;;13.05;;
53391;SDS011;41667;51.922;8.850;2024-01-30T08:24:12;26.08;;;14.55;;
53391;SDS011;41667;51.922;8.850;2024-01-30T08:26:38;17.48;;;13.25;;
53391;SDS011;41667;51.922;8.850;2024-01-30T08:29:03;20.63;;;12.73;;
53391;SDS011;41667;51.922;8.850;2024-01-30T08:31:29;23.13;;;14.82;;
53391;SDS011;41667;51.922;8.850;2024-01-30T08:33:54;23.88;;;15.55;;
53391;SDS011;41667;51.922;8.850;2024-01-30T08:36:19;25.02;;;13.93;;
53391;SDS011;41667;51.922;8.850;2024-01-30T08:38:45;23.70;;;14.38;;
53391;SDS011;41667;51.922;8.850;2024-01-30T08:41:10;25.10;;;15.07;;
53391;SDS011;41667;51.922;8.850;2024-01-30T08:43:35;25.40;;;16.27;;
53391;SDS011;41667;51.922;8.850;2024-01-30T08:46:01;29.30;;;16.67;;
53391;SDS011;41667;51.922;8.850;2024-01-30T08:48:26;22.77;;;14.30;;
53391;SDS011;41667;51.922;8.850;2024-01-30T08:50:52;25.85;;;15.98;;
53391;SDS011;41667;51.922;8.850;2024-01-30T08:53:17;29.45;;;15.88;;
53391;SDS011;41667;51.922;8.850;2024-01-30T08:55:43;25.90;;;16.63;;
53391;SDS011;41667;51.922;8.850;2024-01-30T08:58:08;24.73;;;17.38;;
53391;SDS011;41667;51.922;8.850;2024-01-30T09:00:34;23.17;;;15.27;;
53391;SDS011;41667;51.922;8.850;2024-01-30T09:02:59;25.75;;;15.18;;
53391;SDS011;41667;51.922;8.850;2024-01-30T09:05:24;27.33;;;14.00;;
53391;SDS011;41667;51.922;8.850;2024-01-30T09:07:49;26.55;;;14.85;;
53391;SDS011;41667;51.922;8.850;2024-01-30T09:10:15;29.55;;;17.00;;
53391;SDS011;41667;51.922;8.850;2024-01-30T09:12:40;28.42;;;15.27;;
53391;SDS011;41667;51.922;8.850;2024-01-30T09:15:06;32.00;;;15.07;;
53391;SDS011;41667;51.922;8.850;2024-01-30T09:17:31;27.50;;;15.32;;
53391;SDS011;41667;51.922;8.850;2024-01-30T09:19:58;24.00;;;14.15;;
53391;SDS011;41667;51.922;8.850;2024-01-30T09:22:23;23.40;;;14.63;;
53391;SDS011;41667;51.922;8.850;2024-01-30T09:24:48;22.10;;;14.35;;
53391;SDS011;41667;51.922;8.850;2024-01-30T09:27:14;23.67;;;14.43;;
53391;SDS011;41667;51.922;8.850;2024-01-30T09:29:39;21.55;;;13.60;;
53391;SDS011;41667;51.922;8.850;2024-01-30T09:32:05;20.48;;;13.07;;
53391;SDS011;41667;51.922;8.850;2024-01-30T09:34:31;19.88;;;12.63;;
53391;SDS011;41667;51.922;8.850;2024-01-30T09:36:56;21.45;;;14.02;;
53391;SDS011;41667;51.922;8.850;2024-01-30T09:39:22;22.30;;;14.07;;
53391;SDS011;41667;51.922;8.850;2024-01-30T09:41:48;24.33;;;13.77;;
53391;SDS011;41667;51.922;8.850;2024-01-30T09:44:18;22.75;;;14.60;;
53391;SDS011;41667;51.922;8.850;2024-01-30T09:46:46;21.05;;;11.98;;
53391;SDS011;41667;51.922;8.850;2024-01-30T09:49:13;24.58;;;12.52;;
53391;SDS011;41667;51.922;8.850;2024-01-30T09:51:39;17.90;;;11.80;;
53391;SDS011;41667;51.922;8.850;2024-01-30T09:54:04;26.88;;;12.23;;
53391;SDS011;41667;51.922;8.850;2024-01-30T09:56:29;19.33;;;12.25;;
53391;SDS011;41667;51.922;8.850;2024-01-30T09:58:55;21.80;;;13.70;;
53391;SDS011;41667;51.922;8.850;2024-01-30T10:01:20;22.50;;;11.68;;
53391;SDS011;41667;51.922;8.850;2024-01-30T10:03:45;18.85;;;12.60;;
53391;SDS011;41667;51.922;8.850;2024-01-30T10:06:11;16.88;;;11.90;;
53391;SDS011;41667;51.922;8.850;2024-01-30T10:08:36;18.90;;;13.07;;
53391;SDS011;41667;51.922;8.850;2024-01-30T10:11:02;27.17;;;14.05;;
53391;SDS011;41667;51.922;8.850;2024-01-30T10:13:28;19.77;;;13.48;;
53391;SDS011;41667;51.922;8.850;2024-01-30T10:15:53;22.45;;;14.52;;
53391;SDS011;41667;51.922;8.850;2024-01-30T10:18:19;20.38;;;13.68;;
53391;SDS011;41667;51.922;8.850;2024-01-30T10:20:45;18.90;;;12.82;;
53391;SDS011;41667;51.922;8.850;2024-01-30T10:23:11;19.00;;;13.32;;
53391;SDS011;41667;51.922;8.850;2024-01-30T10:25:36;20.05;;;12.10;;
53391;SDS011;41667;51.922;8.850;2024-01-30T10:28:02;19.85;;;13.13;;
53391;SDS011;41667;51.922;8.850;2024-01-30T10:30:27;16.80;;;11.60;;
53391;SDS011;41667;51.922;8.850;2024-01-30T10:32:53;18.80;;;11.43;;
53391;SDS011;41667;51.922;8.850;2024-01-30T10:35:18;18.10;;;12.40;;
53391;SDS011;41667;51.922;8.850;2024-01-30T10:37:44;17.15;;;11.00;;
53391;SDS011;41667;51.922;8.850;2024-01-30T10:40:12;28.67;;;11.48;;
53391;SDS011;41667;51.922;8.850;2024-01-30T10:42:39;17.90;;;11.43;;
53391;SDS011;41667;51.922;8.850;2024-01-30T10:45:11;15.05;;;11.57;;
53391;SDS011;41667;51.922;8.850;2024-01-30T10:47:37;17.00;;;11.88;;
53391;SDS011;41667;51.922;8.850;2024-01-30T10:50:05;13.25;;;10.40;;
53391;SDS011;41667;51.922;8.850;2024-01-30T10:52:31;14.55;;;11.00;;
53391;SDS011;41667;51.922;8.850;2024-01-30T10:54:57;15.52;;;10.52;;
53391;SDS011;41667;51.922;8.850;2024-01-30T10:57:22;20.15;;;11.93;;
53391;SDS011;41667;51.922;8.850;2024-01-30T10:59:49;22.15;;;11.35;;
53391;SDS011;41667;51.922;8.850;2024-01-30T11:02:15;18.45;;;11.30;;
53391;SDS011;41667;51.922;8.850;2024-01-30T11:04:41;14.20;;;10.93;;
53391;SDS011;41667;51.922;8.850;2024-01-30T11:07:18;17.65;;;10.32;;
53391;SDS011;41667;51.922;8.850;2024-01-30T11:12:23;21.83;;;11.57;;
53391;SDS011;41667;51.922;8.850;2024-01-30T11:14:50;17.02;;;11.25;;
53391;SDS011;41667;51.922;8.850;2024-01-30T11:17:28;16.65;;;12.35;;
53391;SDS011;41667;51.922;8.850;2024-01-30T11:19:53;17.58;;;11.77;;
53391;SDS011;41667;51.922;8.850;2024-01-30T11:22:20;19.27;;;11.50;;
53391;SDS011;41667;51.922;8.850;2024-01-30T11:24:45;15.65;;;11.70;;
53391;SDS011;41667;51.922;8.850;2024-01-30T11:27:12;17.00;;;11.82;;
53391;SDS011;41667;51.922;8.850;2024-01-30T11:29:38;17.63;;;13.38;;
53391;SDS011;41667;51.922;8.850;2024-01-30T11:32:05;18.98;;;12.63;;
53391;SDS011;41667;51.922;8.850;2024-01-30T11:34:30;19.27;;;13.23;;
53391;SDS011;41667;51.922;8.850;2024-01-30T11:36:58;20.73;;;11.73;;
53391;SDS011;41667;51.922;8.850;2024-01-30T11:39:25;16.20;;;11.15;;
53391;SDS011;41667;51.922;8.850;2024-01-30T11:41:51;16.77;;;11.95;;
53391;SDS011;41667;51.922;8.850;2024-01-30T11:44:18;17.45;;;10.77;;
53391;SDS011;41667;51.922;8.850;2024-01-30T11:46:45;16.33;;;10.73;;
53391;SDS011;41667;51.922;8.850;2024-01-30T11:49:11;15.15;;;10.45;;
53391;SDS011;41667;51.922;8.850;2024-01-30T11:51:37;17.45;;;11.82;;
53391;SDS011;41667;51.922;8.850;2024-01-30T11:54:02;12.27;;;7.72;;
53391;SDS011;41667;51.922;8.850;2024-01-30T11:56:28;9.35;;;7.03;;
53391;SDS011;41667;51.922;8.850;2024-01-30T11:58:53;4.47;;;4.00;;
53391;SDS011;41667;51.922;8.850;2024-01-30T12:01:19;6.28;;;2.85;;
53391;SDS011;41667;51.922;8.850;2024-01-30T12:03:50;4.78;;;4.15;;
53391;SDS011;41667;51.922;8.850;2024-01-30T12:06:16;3.58;;;3.20;;
53391;SDS011;41667;51.922;8.850;2024-01-30T12:08:42;4.28;;;3.20;;
53391;SDS011;41667;51.922;8.850;2024-01-30T12:11:07;10.60;;;3.35;;
53391;SDS011;41667;51.922;8.850;2024-01-30T12:13:33;4.65;;;2.95;;
53391;SDS011;41667;51.922;8.850;2024-01-30T12:15:59;7.95;;;3.97;;
53391;SDS011;41667;51.922;8.850;2024-01-30T12:18:24;6.07;;;3.13;;
53391;SDS011;41667;51.922;8.850;2024-01-30T12:20:56;4.57;;;3.22;;
53391;SDS011;41667;51.922;8.850;2024-01-30T12:23:24;5.05;;;3.35;;
53391;SDS011;41667;51.922;8.850;2024-01-30T12:25:50;7.78;;;4.32;;
53391;SDS011;41667;51.922;8.850;2024-01-30T12:28:16;3.38;;;3.00;;
53391;SDS011;41667;51.922;8.850;2024-01-30T12:30:42;6.10;;;3.05;;
53391;SDS011;41667;51.922;8.850;2024-01-30T12:33:07;5.38;;;3.17;;
53391;SDS011;41667;51.922;8.850;2024-01-30T12:35:34;6.57;;;3.78;;
53391;SDS011;41667;51.922;8.850;2024-01-30T12:38:00;4.32;;;3.58;;
53391;SDS011;41667;51.922;8.850;2024-01-30T12:40:25;6.72;;;3.92;;
53391;SDS011;41667;51.922;8.850;2024-01-30T12:42:51;3.97;;;3.13;;
53391;SDS011;41667;51.922;8.850;2024-01-30T12:45:17;4.45;;;3.75;;
53391;SDS011;41667;51.922;8.850;2024-01-30T12:47:46;7.45;;;4.05;;
53391;SDS011;41667;51.922;8.850;2024-01-30T12:50:12;9.82;;;3.80;;
53391;SDS011;41667;51.922;8.850;2024-01-30T12:52:40;5.13;;;4.63;;
53391;SDS011;41667;51.922;8.850;2024-01-30T12:55:05;4.55;;;3.45;;
53391;SDS011;41667;51.922;8.850;2024-01-30T12:57:31;4.57;;;3.88;;
53391;SDS011;41667;51.922;8.850;2024-01-30T12:59:56;8.88;;;3.92;;
53391;SDS011;41667;51.922;8.850;2024-01-30T13:02:21;5.40;;;3.63;;
53391;SDS011;41667;51.922;8.850;2024-01-30T13:04:47;7.60;;;4.05;;
53391;SDS011;41667;51.922;8.850;2024-01-30T13:07:12;5.15;;;3.88;;
53391;SDS011;41667;51.922;8.850;2024-01-30T13:09:38;6.10;;;4.30;;
53391;SDS011;41667;51.922;8.850;2024-01-30T13:12:03;6.25;;;4.18;;
53391;SDS011;41667;51.922;8.850;2024-01-30T13:14:29;5.97;;;3.53;;
53391;SDS011;41667;51.922;8.850;2024-01-30T13:16:54;5.05;;;3.80;;
53391;SDS011;41667;51.922;8.850;2024-01-30T13:19:19;5.25;;;3.47;;
53391;SDS011;41667;51.922;8.850;2024-01-30T13:21:45;8.02;;;4.28;;
53391;SDS011;41667;51.922;8.850;2024-01-30T13:24:10;8.23;;;4.85;;
53391;SDS011;41667;51.922;8.850;2024-01-30T13:26:35;11.95;;;5.28;;
53391;SDS011;41667;51.922;8.850;2024-01-30T13:29:01;5.97;;;3.67;;
53391;SDS011;41667;51.922;8.850;2024-01-30T13:31:27;5.05;;;3.53;;
53391;SDS011;41667;51.922;8.850;2024-01-30T13:33:53;7.57;;;4.88;;
53391;SDS011;41667;51.922;8.850;2024-01-30T13:36:18;7.32;;;3.90;;
53391;SDS011;41667;51.922;8.850;2024-01-30T13:38:44;5.05;;;3.95;;
53391;SDS011;41667;51.922;8.850;2024-01-30T13:41:09;8.93;;;4.40;;
53391;SDS011;41667;51.922;8.850;2024-01-30T13:43:34;7.68;;;4.07;;
53391;SDS011;41667;51.922;8.850;2024-01-30T13:46:00;8.55;;;4.57;;
53391;SDS011;41667;51.922;8.850;2024-01-30T13:48:25;4.53;;;3.95;;
53391;SDS011;41667;51.922;8.850;2024-01-30T13:50:51;7.40;;;4.20;;
53391;SDS011;41667;51.922;8.850;2024-01-30T13:53:16;4.35;;;3.53;;
53391;SDS011;41667;51.922;8.850;2024-01-30T13:55:41;8.57;;;4.68;;
53391;SDS011;41667;51.922;8.850;2024-01-30T13:58:06;11.95;;;4.50;;
53391;SDS011;41667;51.922;8.850;2024-01-30T14:00:32;8.50;;;3.92;;
53391;SDS011;41667;51.922;8.850;2024-01-30T14:02:58;8.75;;;4.43;;
53391;SDS011;41667;51.922;8.850;2024-01-30T14:05:24;8.80;;;4.28;;
53391;SDS011;41667;51.922;8.850;2024-01-30T14:07:50;5.18;;;3.30;;
53391;SDS011;41667;51.922;8.850;2024-01-30T14:10:16;9.52;;;4.55;;
53391;SDS011;41667;51.922;8.850;2024-01-30T14:12:44;6.88;;;4.05;;
53391;SDS011;41667;51.922;8.850;2024-01-30T14:15:10;6.65;;;4.10;;
53391;SDS011;41667;51.922;8.850;2024-01-30T14:17:37;6.47;;;3.85;;
53391;SDS011;41667;51.922;8.850;2024-01-30T14:20:03;8.00;;;4.72;;